createdAt,value
2023-02-24T00:01:52.251Z,100.00
2023-02-24T00:04:20.903Z,100.00
2023-02-24T00:06:48.251Z,100.00
2023-02-24T00:09:20.986Z,100.00
2023-02-24T00:11:55.343Z,100.00
2023-02-24T00:14:24.673Z,100.00
2023-02-24T00:16:53.005Z,100.00
2023-02-24T00:19:23.823Z,100.00
2023-02-24T00:21:51.727Z,100.00
2023-02-24T00:24:18.909Z,100.00
2023-02-24T00:26:48.369Z,100.00
2023-02-24T00:29:14.963Z,100.00
2023-02-24T00:31:42.836Z,100.00
2023-02-24T00:34:12.491Z,100.00
2023-02-24T00:36:39.332Z,100.00
2023-02-24T00:39:10.696Z,100.00
2023-02-24T00:41:43.018Z,100.00
2023-02-24T00:44:13.170Z,100.00
2023-02-24T00:46:42.123Z,100.00
2023-02-24T00:49:13.103Z,100.00
2023-02-24T00:51:42.014Z,100.00
2023-02-24T00:54:10.253Z,100.00
2023-02-24T00:56:36.840Z,100.00
2023-02-24T00:59:03.426Z,100.00
2023-02-24T01:01:32.942Z,100.00
2023-02-24T01:04:10.958Z,100.00
2023-02-24T01:06:49.032Z,100.00
2023-02-24T01:09:20.727Z,100.00
2023-02-24T01:12:08.229Z,100.00
2023-02-24T01:14:36.062Z,100.00
2023-02-24T01:17:04.683Z,100.00
2023-02-24T01:19:33.107Z,100.00
2023-02-24T01:22:02.140Z,100.00
2023-02-24T01:24:31.998Z,100.00
2023-02-24T01:26:59.207Z,100.00
2023-02-24T01:29:25.940Z,100.00
2023-02-24T01:31:52.687Z,100.00
2023-02-24T01:34:19.336Z,100.00
2023-02-24T01:36:45.785Z,100.00
2023-02-24T01:39:13.435Z,100.00
2023-02-24T01:41:42.469Z,100.00
2023-02-24T01:44:29.508Z,100.00
2023-02-24T01:46:56.258Z,100.00
2023-02-24T01:49:29.555Z,100.00
2023-02-24T01:52:03.101Z,100.00
2023-02-24T01:54:41.533Z,100.00
2023-02-24T01:57:09.616Z,100.00
2023-02-24T01:59:37.185Z,100.00
2023-02-24T02:02:07.647Z,100.00
2023-02-24T02:04:51.361Z,100.00
2023-02-24T02:07:21.815Z,100.00
2023-02-24T02:09:49.645Z,100.00
2023-02-24T02:12:16.428Z,100.00
2023-02-24T02:14:52.215Z,100.00
2023-02-24T02:17:24.786Z,100.00
2023-02-24T02:20:15.720Z,100.00
2023-02-24T02:23:06.556Z,100.00
2023-02-24T02:26:18.776Z,100.00
2023-02-24T02:29:22.082Z,100.00
2023-02-24T02:32:33.594Z,100.00
2023-02-24T02:35:27.594Z,100.00
2023-02-24T02:38:10.631Z,100.00
2023-02-24T02:40:42.242Z,100.00
2023-02-24T02:43:29.548Z,100.00
2023-02-24T02:46:04.888Z,100.00
2023-02-24T02:48:41.042Z,100.00
2023-02-24T02:51:11.273Z,100.00
2023-02-24T02:54:00.461Z,100.00
2023-02-24T02:56:48.440Z,100.00
2023-02-24T02:59:22.417Z,100.00
2023-02-24T03:01:52.520Z,100.00
2023-02-24T03:04:23.121Z,100.00
2023-02-24T03:07:01.641Z,100.00
2023-02-24T03:09:41.304Z,100.00
2023-02-24T03:12:17.233Z,100.00
2023-02-24T03:14:52.318Z,100.00
2023-02-24T03:17:24.869Z,100.00
2023-02-24T03:20:00.605Z,100.00
2023-02-24T03:22:37.431Z,100.00
2023-02-24T03:25:06.147Z,100.00
2023-02-24T03:27:49.132Z,100.00
2023-02-24T03:30:22.407Z,100.00
2023-02-24T03:33:03.139Z,100.00
2023-02-24T03:35:37.527Z,100.00
2023-02-24T03:38:06.161Z,100.00
2023-02-24T03:40:34.306Z,100.00
2023-02-24T03:43:08.200Z,100.00
2023-02-24T03:45:38.143Z,100.00
2023-02-24T03:48:07.828Z,100.00
2023-02-24T03:50:35.908Z,100.00
2023-02-24T03:53:30.997Z,100.00
2023-02-24T03:56:15.845Z,100.00
2023-02-24T03:58:50.609Z,100.00
2023-02-24T04:01:26.630Z,100.00
2023-02-24T04:04:08.902Z,100.00
2023-02-24T04:07:09.723Z,100.00
2023-02-24T04:09:50.413Z,100.00
2023-02-24T04:12:32.010Z,100.00
2023-02-24T04:15:13.422Z,100.00
2023-02-24T04:17:50.954Z,100.00
2023-02-24T04:20:22.762Z,100.00
2023-02-24T04:23:04.088Z,100.00
2023-02-24T04:25:32.319Z,100.00
2023-02-24T04:28:02.964Z,100.00
2023-02-24T04:30:35.347Z,100.00
2023-02-24T04:33:02.495Z,100.00
2023-02-24T04:35:28.986Z,100.00
2023-02-24T04:37:56.409Z,100.00
2023-02-24T04:40:24.054Z,100.00
2023-02-24T04:42:52.526Z,100.00
2023-02-24T04:45:25.992Z,100.00
2023-02-24T04:48:00.759Z,100.00
2023-02-24T04:50:33.093Z,100.00
2023-02-24T04:53:02.572Z,100.00
2023-02-24T04:55:33.028Z,100.00
2023-02-24T04:58:01.572Z,100.00
2023-02-24T05:00:35.452Z,100.00
2023-02-24T05:03:04.688Z,100.00
2023-02-24T05:05:33.437Z,100.00
2023-02-24T05:08:06.783Z,100.00
2023-02-24T05:10:49.471Z,100.00
2023-02-24T05:13:26.561Z,100.00
2023-02-24T05:15:54.554Z,100.00
2023-02-24T05:18:20.967Z,100.00
2023-02-24T05:21:11.636Z,100.00
2023-02-24T05:23:40.475Z,100.00
2023-02-24T05:26:09.793Z,100.00
2023-02-24T05:28:40.943Z,100.00
2023-02-24T05:31:15.349Z,100.00
2023-02-24T05:33:44.070Z,100.00
2023-02-24T05:36:17.148Z,100.00
2023-02-24T05:38:48.906Z,100.00
2023-02-24T05:41:19.736Z,100.00
2023-02-24T05:43:53.155Z,100.00
2023-02-24T05:46:28.115Z,100.00
2023-02-24T05:48:59.789Z,100.00
2023-02-24T05:51:34.971Z,100.00
2023-02-24T05:54:06.657Z,100.00
2023-02-24T05:56:34.592Z,100.00
2023-02-24T05:59:02.834Z,100.00
2023-02-24T06:01:31.629Z,100.00
2023-02-24T06:04:05.971Z,100.00
2023-02-24T06:06:38.319Z,100.00
2023-02-24T06:09:09.794Z,100.00
2023-02-24T06:11:40.784Z,100.00
2023-02-24T06:14:08.101Z,99.79
2023-02-24T06:16:36.008Z,98.24
2023-02-24T06:19:03.267Z,97.73
2023-02-24T06:21:29.945Z,97.39
2023-02-24T06:23:57.766Z,96.35
2023-02-24T06:26:29.670Z,96.62
2023-02-24T06:29:00.342Z,96.85
2023-02-24T06:31:27.527Z,95.64
2023-02-24T06:33:54.157Z,95.33
2023-02-24T06:36:21.407Z,95.26
2023-02-24T06:38:49.520Z,95.68
2023-02-24T06:41:16.045Z,94.64
2023-02-24T06:43:45.257Z,95.21
2023-02-24T06:46:13.800Z,94.12
2023-02-24T06:48:40.310Z,94.16
2023-02-24T06:51:10.430Z,95.58
2023-02-24T06:53:43.023Z,94.63
2023-02-24T06:56:15.843Z,95.15
2023-02-24T06:58:47.407Z,95.51
2023-02-24T07:01:26.106Z,97.05
2023-02-24T07:04:13.066Z,98.41
2023-02-24T07:06:41.304Z,97.65
2023-02-24T07:09:13.618Z,97.90
2023-02-24T07:11:42.215Z,98.12
2023-02-24T07:14:11.201Z,97.81
2023-02-24T07:16:41.506Z,96.68
2023-02-24T07:19:11.796Z,93.58
2023-02-24T07:21:43.280Z,92.62
2023-02-24T07:24:13.323Z,92.41
2023-02-24T07:26:42.112Z,91.79
2023-02-24T07:29:11.492Z,90.78
2023-02-24T07:31:39.499Z,90.91
2023-02-24T07:34:06.348Z,91.71
2023-02-24T07:36:38.824Z,90.71
2023-02-24T07:39:09.238Z,90.61
2023-02-24T07:41:36.967Z,90.49
2023-02-24T07:44:03.531Z,91.54
2023-02-24T07:46:30.476Z,90.89
2023-02-24T07:48:59.135Z,90.50
2023-02-24T07:51:27.460Z,90.34
2023-02-24T07:53:58.794Z,90.18
2023-02-24T07:56:27.909Z,87.47
2023-02-24T07:59:01.666Z,86.79
2023-02-24T08:01:38.681Z,87.45
2023-02-24T08:04:12.310Z,87.94
2023-02-24T08:06:46.106Z,88.34
2023-02-24T08:09:18.707Z,86.89
2023-02-24T08:11:53.155Z,86.27
2023-02-24T08:14:24.556Z,87.67
2023-02-24T08:16:59.218Z,86.73
2023-02-24T08:19:32.694Z,86.73
2023-02-24T08:22:19.357Z,87.21
2023-02-24T08:25:00.544Z,87.92
2023-02-24T08:27:31.983Z,86.36
2023-02-24T08:30:01.383Z,85.85
2023-02-24T08:32:34.551Z,84.67
2023-02-24T08:35:05.350Z,85.13
2023-02-24T08:37:39.544Z,84.85
2023-02-24T08:40:33.834Z,84.53
2023-02-24T08:43:16.992Z,84.40
2023-02-24T08:45:52.206Z,84.35
2023-02-24T08:48:32.358Z,84.07
2023-02-24T08:51:02.092Z,86.68
2023-02-24T08:53:31.869Z,87.34
2023-02-24T08:56:00.821Z,85.06
2023-02-24T08:58:27.306Z,86.38
2023-02-24T09:00:56.783Z,86.66
2023-02-24T09:03:28.297Z,86.74
2023-02-24T09:06:04.527Z,84.97
2023-02-24T09:08:38.417Z,85.55
2023-02-24T09:11:10.289Z,85.61
2023-02-24T09:13:42.895Z,84.24
2023-02-24T09:16:16.410Z,85.06
2023-02-24T09:18:43.224Z,84.91
2023-02-24T09:21:33.413Z,84.27
2023-02-24T09:24:05.494Z,84.57
2023-02-24T09:26:42.962Z,84.66
2023-02-24T09:29:31.002Z,84.29
2023-02-24T09:32:07.147Z,83.74
2023-02-24T09:34:45.256Z,84.08
2023-02-24T09:37:34.506Z,83.40
2023-02-24T09:40:15.792Z,84.22
2023-02-24T09:42:48.351Z,82.64
2023-02-24T09:45:35.706Z,82.61
2023-02-24T09:48:21.259Z,82.10
2023-02-24T09:51:03.903Z,82.34
2023-02-24T09:53:42.357Z,82.25
2023-02-24T09:56:17.687Z,82.99
2023-02-24T09:59:35.474Z,82.51
2023-02-24T10:02:27.391Z,82.72
2023-02-24T10:05:19.373Z,81.89
2023-02-24T10:07:46.885Z,81.80
2023-02-24T10:10:35.714Z,82.94
2023-02-24T10:13:43.459Z,81.53
2023-02-24T10:16:16.405Z,81.39
2023-02-24T10:19:14.874Z,83.08
2023-02-24T10:21:49.390Z,84.33
2023-02-24T10:24:29.640Z,83.46
2023-02-24T10:27:08.425Z,82.83
2023-02-24T10:30:01.009Z,82.85
2023-02-24T10:32:46.964Z,83.26
2023-02-24T10:35:19.399Z,82.75
2023-02-24T10:37:46.660Z,84.40
2023-02-24T10:40:24.684Z,83.72
2023-02-24T10:42:54.931Z,85.65
2023-02-24T10:45:26.487Z,86.52
2023-02-24T10:47:58.258Z,88.20
2023-02-24T10:50:32.872Z,89.67
2023-02-24T10:53:06.273Z,89.54
2023-02-24T10:55:44.888Z,88.93
2023-02-24T10:58:27.917Z,90.56
2023-02-24T11:01:12.048Z,91.51
2023-02-24T11:03:47.945Z,91.98
2023-02-24T11:06:40.455Z,92.59
2023-02-24T11:09:38.411Z,94.09
2023-02-24T11:12:29.693Z,94.70
2023-02-24T11:15:18.162Z,96.58
2023-02-24T11:17:50.880Z,97.75
2023-02-24T11:20:33.627Z,98.08
2023-02-24T11:23:15.210Z,98.32
2023-02-24T11:25:46.481Z,99.24
2023-02-24T11:28:39.611Z,99.86
2023-02-24T11:31:42.224Z,100.00
2023-02-24T11:34:30.526Z,100.00
2023-02-24T11:37:09.157Z,100.00
2023-02-24T11:39:47.743Z,100.00
2023-02-24T11:42:24.740Z,100.00
2023-02-24T11:45:15.901Z,100.00
2023-02-24T11:47:51.980Z,100.00
2023-02-24T11:50:43.716Z,100.00
2023-02-24T11:53:15.716Z,100.00
2023-02-24T11:55:46.840Z,100.00
2023-02-24T11:58:27.970Z,100.00
2023-02-24T12:01:01.135Z,100.00
2023-02-24T12:03:45.842Z,100.00
2023-02-24T12:06:19.495Z,100.00
2023-02-24T12:08:52.570Z,100.00
2023-02-24T12:11:28.242Z,100.00
2023-02-24T12:14:13.786Z,100.00
2023-02-24T12:16:45.903Z,100.00
2023-02-24T12:19:22.522Z,100.00
2023-02-24T12:21:59.435Z,100.00
2023-02-24T12:24:26.106Z,100.00
2023-02-24T12:27:01.327Z,100.00
2023-02-24T12:29:44.783Z,100.00
2023-02-24T12:32:21.421Z,100.00
2023-02-24T12:35:13.968Z,100.00
2023-02-24T12:37:52.061Z,100.00
2023-02-24T12:40:45.600Z,100.00
2023-02-24T12:43:36.100Z,100.00
2023-02-24T12:46:21.167Z,100.00
2023-02-24T12:49:01.657Z,100.00
2023-02-24T12:51:55.264Z,100.00
2023-02-24T12:54:33.879Z,100.00
2023-02-24T12:57:30.672Z,100.00
2023-02-24T13:00:05.384Z,100.00
2023-02-24T13:02:52.154Z,100.00
2023-02-24T13:05:29.579Z,100.00
2023-02-24T13:08:16.625Z,100.00
2023-02-24T13:11:03.293Z,100.00
2023-02-24T13:13:53.603Z,100.00
2023-02-24T13:16:38.124Z,100.00
2023-02-24T13:19:27.308Z,100.00
2023-02-24T13:22:03.449Z,100.00
2023-02-24T13:24:30.024Z,100.00
2023-02-24T13:27:24.981Z,100.00
2023-02-24T13:29:56.602Z,100.00
2023-02-24T13:32:34.948Z,100.00
2023-02-24T13:35:26.607Z,100.00
2023-02-24T13:37:54.079Z,100.00
2023-02-24T13:40:26.406Z,100.00
2023-02-24T13:43:00.433Z,100.00
2023-02-24T13:45:32.299Z,100.00
2023-02-24T13:48:10.693Z,100.00
2023-02-24T13:51:10.223Z,100.00
2023-02-24T13:54:13.854Z,100.00
2023-02-24T13:56:45.403Z,100.00
2023-02-24T13:59:36.552Z,100.00
2023-02-24T14:02:21.046Z,100.00
2023-02-24T14:04:54.402Z,100.00
2023-02-24T14:07:25.997Z,100.00
2023-02-24T14:10:05.058Z,100.00
2023-02-24T14:12:35.001Z,100.00
2023-02-24T14:15:04.026Z,100.00
2023-02-24T14:17:33.451Z,100.00
2023-02-24T14:20:19.910Z,100.00
2023-02-24T14:22:49.692Z,100.00
2023-02-24T14:25:18.030Z,100.00
2023-02-24T14:27:46.948Z,100.00
2023-02-24T14:30:35.390Z,100.00
2023-02-24T14:33:03.708Z,100.00
2023-02-24T14:35:41.665Z,100.00
2023-02-24T14:38:31.372Z,100.00
2023-02-24T14:40:58.449Z,100.00
2023-02-24T14:43:25.049Z,100.00
2023-02-24T14:45:53.069Z,100.00
2023-02-24T14:48:30.734Z,100.00
2023-02-24T14:51:05.178Z,100.00
2023-02-24T14:53:35.156Z,100.00
2023-02-24T14:56:05.574Z,100.00
2023-02-24T14:58:39.401Z,100.00
2023-02-24T15:01:19.922Z,100.00
2023-02-24T15:03:50.173Z,100.00
2023-02-24T15:06:24.915Z,100.00
2023-02-24T15:08:58.411Z,100.00
2023-02-24T15:11:27.298Z,100.00
2023-02-24T15:13:57.749Z,100.00
2023-02-24T15:16:36.726Z,100.00
2023-02-24T15:19:04.004Z,100.00
2023-02-24T15:21:33.257Z,100.00
2023-02-24T15:24:13.139Z,100.00
2023-02-24T15:26:39.572Z,100.00
2023-02-24T15:29:14.998Z,100.00
2023-02-24T15:31:47.376Z,100.00
2023-02-24T15:34:20.234Z,100.00
2023-02-24T15:36:47.225Z,100.00
2023-02-24T15:39:23.611Z,100.00
2023-02-24T15:41:52.252Z,100.00
2023-02-24T15:44:29.794Z,100.00
2023-02-24T15:46:58.242Z,100.00
2023-02-24T15:49:24.688Z,100.00
2023-02-24T15:51:54.649Z,100.00
2023-02-24T15:54:29.770Z,100.00
2023-02-24T15:56:59.207Z,100.00
2023-02-24T15:59:25.702Z,100.00
2023-02-24T16:01:52.324Z,100.00
2023-02-24T16:04:19.874Z,100.00
2023-02-24T16:06:54.262Z,100.00
2023-02-24T16:09:38.362Z,100.00
2023-02-24T16:12:20.740Z,100.00
2023-02-24T16:15:05.792Z,100.00
2023-02-24T16:17:37.528Z,100.00
2023-02-24T16:20:09.000Z,100.00
2023-02-24T16:22:35.769Z,100.00
2023-02-24T16:25:03.154Z,100.00
2023-02-24T16:27:30.077Z,100.00
2023-02-24T16:29:57.475Z,100.00
2023-02-24T16:32:25.938Z,100.00
2023-02-24T16:34:53.563Z,100.00
2023-02-24T16:37:29.572Z,100.00
2023-02-24T16:39:58.041Z,100.00
2023-02-24T16:42:24.440Z,100.00
2023-02-24T16:44:50.977Z,100.00
2023-02-24T16:47:20.960Z,100.00
2023-02-24T16:49:47.589Z,100.00
2023-02-24T16:52:18.862Z,100.00
2023-02-24T16:54:47.534Z,100.00
2023-02-24T16:57:14.107Z,100.00
2023-02-24T16:59:40.507Z,100.00
2023-02-24T17:02:19.935Z,100.00
2023-02-24T17:04:46.438Z,100.00
2023-02-24T17:07:14.482Z,100.00
2023-02-24T17:09:40.882Z,100.00
2023-02-24T17:12:07.391Z,100.00
2023-02-24T17:14:33.988Z,100.00
2023-02-24T17:17:00.509Z,100.00
2023-02-24T17:19:26.892Z,100.00
2023-02-24T17:21:53.271Z,100.00
2023-02-24T17:24:20.654Z,100.00
2023-02-24T17:26:47.270Z,100.00
2023-02-24T17:29:14.541Z,100.00
2023-02-24T17:31:42.164Z,100.00
2023-02-24T17:34:09.297Z,100.00
2023-02-24T17:36:35.882Z,100.00
2023-02-24T17:39:02.436Z,100.00
2023-02-24T17:41:28.984Z,100.00
2023-02-24T17:43:55.530Z,100.00
2023-02-24T17:46:22.726Z,100.00
2023-02-24T17:48:49.317Z,100.00
2023-02-24T17:51:19.950Z,100.00
2023-02-24T17:53:46.611Z,100.00
2023-02-24T17:56:13.311Z,100.00
2023-02-24T17:58:40.303Z,100.00
2023-02-24T18:01:07.066Z,100.00
2023-02-24T18:03:35.567Z,100.00
2023-02-24T18:06:10.840Z,100.00
2023-02-24T18:08:38.907Z,100.00
2023-02-24T18:11:07.546Z,100.00
2023-02-24T18:13:34.563Z,100.00
2023-02-24T18:16:01.616Z,100.00
2023-02-24T18:18:30.163Z,100.00
2023-02-24T18:21:01.731Z,100.00
2023-02-24T18:23:28.694Z,100.00
2023-02-24T18:25:55.114Z,100.00
2023-02-24T18:28:21.474Z,100.00
2023-02-24T18:30:48.051Z,100.00
2023-02-24T18:33:14.548Z,100.00
2023-02-24T18:35:40.952Z,100.00
2023-02-24T18:38:07.337Z,100.00
2023-02-24T18:40:33.744Z,100.00
2023-02-24T18:43:00.152Z,100.00
2023-02-24T18:45:26.671Z,100.00
2023-02-24T18:47:53.726Z,100.00
2023-02-24T18:50:24.860Z,100.00
2023-02-24T18:52:51.905Z,100.00
2023-02-24T18:55:19.592Z,100.00
2023-02-24T18:57:46.784Z,100.00
2023-02-24T19:00:14.362Z,100.00
2023-02-24T19:02:40.878Z,100.00
2023-02-24T19:05:07.984Z,100.00
2023-02-24T19:07:34.401Z,100.00
2023-02-24T19:10:00.801Z,100.00
2023-02-24T19:12:27.214Z,100.00
2023-02-24T19:14:53.603Z,100.00
2023-02-24T19:17:20.218Z,100.00
2023-02-24T19:19:46.793Z,100.00
2023-02-24T19:22:13.258Z,100.00
2023-02-24T19:24:39.639Z,100.00
2023-02-24T19:27:08.535Z,100.00
2023-02-24T19:29:34.944Z,100.00
2023-02-24T19:32:01.627Z,100.00
2023-02-24T19:34:28.118Z,100.00
2023-02-24T19:36:54.688Z,100.00
2023-02-24T19:39:21.406Z,100.00
2023-02-24T19:41:49.683Z,100.00
2023-02-24T19:44:16.591Z,100.00
2023-02-24T19:46:44.038Z,100.00
2023-02-24T19:49:10.547Z,100.00
2023-02-24T19:51:36.980Z,100.00
2023-02-24T19:54:05.656Z,100.00
2023-02-24T19:56:34.864Z,100.00
2023-02-24T19:59:02.900Z,100.00
2023-02-24T20:01:30.261Z,100.00
2023-02-24T20:04:02.189Z,100.00
2023-02-24T20:06:32.042Z,100.00
2023-02-24T20:08:58.753Z,100.00
2023-02-24T20:11:25.770Z,100.00
2023-02-24T20:13:53.246Z,100.00
2023-02-24T20:16:23.835Z,100.00
2023-02-24T20:18:51.422Z,100.00
2023-02-24T20:21:17.861Z,100.00
2023-02-24T20:23:44.482Z,100.00
2023-02-24T20:26:13.910Z,100.00
2023-02-24T20:28:40.730Z,100.00
2023-02-24T20:31:10.254Z,100.00
2023-02-24T20:33:40.655Z,100.00
2023-02-24T20:36:12.369Z,100.00
2023-02-24T20:38:39.163Z,100.00
2023-02-24T20:41:06.826Z,100.00
2023-02-24T20:43:33.553Z,100.00
2023-02-24T20:46:09.484Z,100.00
2023-02-24T20:48:35.912Z,100.00
2023-02-24T20:51:05.621Z,100.00
2023-02-24T20:53:32.198Z,100.00
2023-02-24T20:56:14.587Z,100.00
2023-02-24T20:58:41.163Z,100.00
2023-02-24T21:01:07.560Z,100.00
2023-02-24T21:03:34.028Z,100.00
2023-02-24T21:06:09.640Z,100.00
2023-02-24T21:08:37.169Z,100.00
2023-02-24T21:11:03.847Z,100.00
2023-02-24T21:13:30.690Z,100.00
2023-02-24T21:15:57.093Z,100.00
2023-02-24T21:18:23.523Z,100.00
2023-02-24T21:20:54.440Z,100.00
2023-02-24T21:23:21.724Z,100.00
2023-02-24T21:25:55.072Z,100.00
2023-02-24T21:28:22.077Z,100.00
2023-02-24T21:30:49.529Z,100.00
2023-02-24T21:33:17.527Z,100.00
2023-02-24T21:35:45.383Z,100.00
2023-02-24T21:38:11.757Z,100.00
2023-02-24T21:40:38.214Z,100.00
2023-02-24T21:43:05.670Z,100.00
2023-02-24T21:45:34.491Z,100.00
2023-02-24T21:48:00.945Z,100.00
2023-02-24T21:50:27.321Z,100.00
2023-02-24T21:52:55.753Z,100.00
2023-02-24T21:55:23.240Z,100.00
2023-02-24T21:57:49.618Z,100.00
2023-02-24T22:00:19.908Z,100.00
2023-02-24T22:02:55.757Z,100.00
2023-02-24T22:05:24.660Z,100.00
2023-02-24T22:07:51.777Z,100.00
2023-02-24T22:10:20.883Z,100.00
2023-02-24T22:12:48.047Z,100.00
2023-02-24T22:15:15.181Z,100.00
2023-02-24T22:17:41.705Z,100.00
2023-02-24T22:20:11.939Z,100.00
2023-02-24T22:22:40.315Z,100.00
2023-02-24T22:25:10.215Z,100.00
2023-02-24T22:27:37.171Z,100.00
2023-02-24T22:30:05.742Z,100.00
2023-02-24T22:32:32.458Z,100.00
2023-02-24T22:34:58.917Z,100.00
2023-02-24T22:37:25.660Z,100.00
2023-02-24T22:39:52.052Z,100.00
2023-02-24T22:42:18.452Z,100.00
2023-02-24T22:44:44.962Z,100.00
2023-02-24T22:47:11.444Z,100.00
2023-02-24T22:49:37.890Z,100.00
2023-02-24T22:52:04.266Z,100.00
2023-02-24T22:54:30.633Z,100.00
2023-02-24T22:56:57.027Z,100.00
2023-02-24T22:59:23.402Z,100.00
2023-02-24T23:01:49.819Z,100.00
2023-02-24T23:04:17.038Z,100.00
2023-02-24T23:06:44.421Z,100.00
2023-02-24T23:09:11.032Z,100.00
2023-02-24T23:11:41.105Z,100.00
2023-02-24T23:14:13.272Z,100.00
2023-02-24T23:16:42.240Z,100.00
2023-02-24T23:19:13.177Z,100.00
2023-02-24T23:21:42.533Z,100.00
2023-02-24T23:24:10.912Z,100.00
2023-02-24T23:26:44.677Z,100.00
2023-02-24T23:29:11.768Z,100.00
2023-02-24T23:31:38.925Z,100.00
2023-02-24T23:34:07.316Z,100.00
2023-02-24T23:36:35.931Z,100.00
2023-02-24T23:39:03.238Z,100.00
2023-02-24T23:41:29.740Z,100.00
2023-02-24T23:43:56.149Z,100.00
2023-02-24T23:46:23.377Z,100.00
2023-02-24T23:48:54.361Z,100.00
2023-02-24T23:51:21.329Z,100.00
2023-02-24T23:53:48.309Z,100.00
2023-02-24T23:56:22.490Z,100.00
2023-02-24T23:58:53.628Z,100.00
